Time;durP1;ratioP1;P1;durP2;ratioP2;P2;SDS_P1;SDS_P2;PMS_P1;PMS_P2;Temp;Humidity;BMP_temperature;BMP_pressure;BME280_temperature;BME280_humidity;BME280_pressure;Samples;Min_cycle;Max_cycle;Signal;HPM_P1;HPM_P2
2021/12/04 00:00:40;;;;;;;2.17;1.65;;;4.00;99.90;;;;;;5073184;28;20072;-81
2021/12/04 00:03:06;;;;;;;1.85;1.75;;;4.00;99.90;;;;;;5071352;28;20432;-82
2021/12/04 00:05:32;;;;;;;1.58;1.48;;;4.00;99.90;;;;;;5072643;28;20044;-86
2021/12/04 00:07:58;;;;;;;1.63;1.52;;;4.00;99.90;;;;;;5071333;28;20041;-82
2021/12/04 00:10:28;;;;;;;8.57;3.03;;;4.00;99.90;;;;;;5072879;28;20059;-84
2021/12/04 00:12:53;;;;;;;7.68;2.28;;;4.00;99.90;;;;;;5072649;28;20080;-86
2021/12/04 00:15:19;;;;;;;2.53;1.33;;;4.00;99.90;;;;;;5071547;28;20036;-86
2021/12/04 00:17:45;;;;;;;1.92;1.83;;;4.00;99.90;;;;;;5071573;28;20106;-84
2021/12/04 00:20:11;;;;;;;3.13;2.92;;;4.00;99.90;;;;;;5072589;28;20448;-84
2021/12/04 00:22:37;;;;;;;2.78;2.58;;;4.00;99.90;;;;;;5073099;28;20055;-85
2021/12/04 00:25:07;;;;;;;3.28;1.58;;;4.00;99.90;;;;;;5071356;28;20040;-83
2021/12/04 00:27:33;;;;;;;4.13;1.80;;;4.00;99.90;;;;;;5088370;28;20044;-85
2021/12/04 00:29:59;;;;;;;3.20;2.90;;;4.00;99.90;;;;;;5071177;28;20048;-84
2021/12/04 00:32:34;;;;;;;0.82;0.82;;;4.00;99.90;;;;;;5071656;28;20056;-84
2021/12/04 00:35:09;;;;;;;11.02;5.20;;;4.00;99.90;;;;;;5072743;28;20040;-85
2021/12/04 00:38:07;;;;;;;3.00;2.40;;;4.00;99.90;;;;;;5073852;28;20487;-83
2021/12/04 00:51:15;;;;;;;2.38;2.17;;;4.00;99.90;;;;;;5075487;28;20049;-84
2021/12/04 00:53:40;;;;;;;6.53;5.03;;;4.00;99.90;;;;;;5075216;28;20131;-82
2021/12/04 00:56:06;;;;;;;1.75;1.63;;;4.00;99.90;;;;;;5074956;28;20131;-85
2021/12/04 00:58:32;;;;;;;2.00;1.00;;;4.00;99.90;;;;;;5075240;28;20040;-84
2021/12/04 01:00:58;;;;;;;1.95;1.42;;;4.00;99.90;;;;;;5075052;28;20028;-82
2021/12/04 01:03:24;;;;;;;6.25;2.45;;;4.00;99.90;;;;;;5074831;28;20048;-83
2021/12/04 01:05:50;;;;;;;2.83;1.95;;;4.00;99.90;;;;;;5074780;28;20086;-83
2021/12/04 01:08:16;;;;;;;1.75;1.60;;;4.00;99.90;;;;;;5076054;28;20499;-84
2021/12/04 01:10:42;;;;;;;4.45;1.42;;;4.00;99.90;;;;;;5076426;28;20044;-87
2021/12/04 01:13:11;;;;;;;7.97;1.35;;;4.00;99.90;;;;;;5076178;28;20111;-84
2021/12/04 01:15:43;;;;;;;3.03;2.83;;;4.00;99.90;;;;;;5058358;28;20032;-83
2021/12/04 01:18:10;;;;;;;0.65;0.65;;;4.00;99.90;;;;;;5074709;28;20074;-84
2021/12/04 01:20:36;;;;;;;3.67;3.40;;;4.00;99.90;;;;;;5075993;28;20041;-83
2021/12/04 01:23:02;;;;;;;1.95;1.55;;;4.00;99.90;;;;;;5075842;28;20053;-84
2021/12/04 01:25:28;;;;;;;6.90;1.65;;;4.00;99.90;;;;;;5074684;28;20055;-83
2021/12/04 01:27:53;;;;;;;1.23;0.82;;;4.00;99.90;;;;;;5075962;28;20033;-86
2021/12/04 01:30:19;;;;;;;2.45;2.17;;;4.00;99.90;;;;;;5075836;28;20097;-82
2021/12/04 01:32:45;;;;;;;1.48;1.38;;;4.00;99.90;;;;;;5074580;28;20115;-82
2021/12/04 01:35:11;;;;;;;1.88;1.77;;;4.00;99.90;;;;;;5074606;28;20064;-88
2021/12/04 01:37:37;;;;;;;4.32;3.95;;;4.10;99.90;;;;;;5074872;28;20170;-90
2021/12/04 01:40:04;;;;;;;3.22;2.92;;;4.10;99.90;;;;;;5075156;28;20173;-90
2021/12/04 01:42:32;;;;;;;1.52;1.17;;;4.00;99.90;;;;;;5074968;28;20036;-89
2021/12/04 01:44:58;;;;;;;2.25;1.25;;;4.00;99.90;;;;;;5076511;28;20115;-86
2021/12/04 01:47:24;;;;;;;7.55;2.03;;;4.00;99.90;;;;;;5075268;28;20052;-88
2021/12/04 01:49:51;;;;;;;1.10;1.05;;;4.00;99.90;;;;;;5076050;28;20068;-89
2021/12/04 01:52:18;;;;;;;3.00;1.48;;;4.10;99.90;;;;;;5074849;28;20161;-88
2021/12/04 01:54:45;;;;;;;3.20;2.45;;;4.00;99.90;;;;;;5074981;28;20047;-89
2021/12/04 01:57:16;;;;;;;2.17;1.77;;;4.00;99.90;;;;;;5075009;28;20088;-88
2021/12/04 01:59:45;;;;;;;3.38;1.65;;;4.10;99.90;;;;;;5074623;28;20044;-88
2021/12/04 02:02:10;;;;;;;1.95;1.52;;;4.10;99.90;;;;;;5076045;28;20044;-88
2021/12/04 02:04:36;;;;;;;2.05;1.95;;;4.00;99.90;;;;;;5074203;28;20052;-88
2021/12/04 02:07:04;;;;;;;3.72;3.03;;;4.10;99.90;;;;;;5074526;28;20451;-89
2021/12/04 02:09:34;;;;;;;0.73;0.73;;;4.10;99.90;;;;;;5075895;28;20052;-89
2021/12/04 02:12:03;;;;;;;2.15;2.05;;;4.00;99.90;;;;;;5074649;28;20059;-90
2021/12/04 02:14:29;;;;;;;2.88;2.50;;;4.00;99.90;;;;;;5074742;28;20589;-90
2021/12/04 02:16:55;;;;;;;1.75;1.65;;;4.00;99.90;;;;;;5075928;28;20380;-88
2021/12/04 02:19:21;;;;;;;2.90;1.95;;;4.00;99.90;;;;;;5075796;28;20040;-89
2021/12/04 02:21:47;;;;;;;3.05;2.85;;;4.00;99.90;;;;;;5075516;28;20089;-87
2021/12/04 02:24:13;;;;;;;0.90;0.65;;;4.00;99.90;;;;;;5075547;28;20385;-88
2021/12/04 02:26:39;;;;;;;3.50;2.58;;;4.10;99.90;;;;;;5074663;28;20127;-85
2021/12/04 02:29:04;;;;;;;1.27;0.80;;;4.00;99.90;;;;;;5075323;28;20048;-88
2021/12/04 02:31:31;;;;;;;3.22;0.68;;;4.00;99.90;;;;;;5057392;28;20127;-88
2021/12/04 02:33:56;;;;;;;2.90;1.35;;;4.00;99.90;;;;;;5073650;28;20041;-89
2021/12/04 02:36:22;;;;;;;10.38;1.15;;;4.00;99.90;;;;;;5073971;28;20189;-89
2021/12/04 02:38:53;;;;;;;1.42;1.33;;;4.00;99.90;;;;;;5057272;28;20045;-89
2021/12/04 02:41:20;;;;;;;3.00;1.50;;;4.00;99.90;;;;;;5074242;28;20130;-88
2021/12/04 02:43:47;;;;;;;4.13;1.83;;;4.00;99.90;;;;;;5073870;28;20040;-88
2021/12/04 02:46:15;;;;;;;3.53;1.85;;;4.00;99.90;;;;;;5073510;28;20127;-88
2021/12/04 02:48:42;;;;;;;4.32;2.08;;;4.00;99.90;;;;;;5073613;28;20052;-86
2021/12/04 02:51:09;;;;;;;1.75;0.98;;;4.00;99.90;;;;;;5057256;28;20094;-89
2021/12/04 02:53:34;;;;;;;3.95;2.22;;;4.00;99.90;;;;;;5075254;28;20051;-88
2021/12/04 02:56:00;;;;;;;2.75;1.55;;;4.00;99.90;;;;;;5074988;28;20036;-88
2021/12/04 02:58:26;;;;;;;3.95;1.20;;;4.00;99.90;;;;;;5074912;28;20638;-88
2021/12/04 03:00:52;;;;;;;2.47;2.38;;;4.00;99.90;;;;;;5073144;28;20063;-88
2021/12/04 03:03:19;;;;;;;1.73;1.58;;;4.00;99.90;;;;;;5073110;28;20084;-88
2021/12/04 03:05:49;;;;;;;1.55;1.45;;;4.00;99.90;;;;;;5073815;28;20119;-89
2021/12/04 03:08:15;;;;;;;1.73;1.52;;;4.00;99.90;;;;;;5073370;28;20048;-88
2021/12/04 03:10:41;;;;;;;2.65;1.38;;;4.00;99.90;;;;;;5074774;28;20036;-89
2021/12/04 03:13:09;;;;;;;1.85;1.55;;;4.00;99.90;;;;;;5074607;28;20175;-88
2021/12/04 03:15:38;;;;;;;1.25;0.85;;;4.00;99.90;;;;;;5074510;28;20127;-89
2021/12/04 03:18:04;;;;;;;4.57;1.98;;;4.00;99.90;;;;;;5074651;28;20112;-89
2021/12/04 03:20:31;;;;;;;4.82;2.78;;;4.00;99.90;;;;;;5074565;28;20044;-88
2021/12/04 03:23:01;;;;;;;0.93;0.93;;;4.00;99.90;;;;;;5074674;28;20047;-89
2021/12/04 03:25:27;;;;;;;2.80;1.48;;;4.00;99.90;;;;;;5073451;28;20451;-88
2021/12/04 03:27:52;;;;;;;0.60;0.60;;;4.00;99.90;;;;;;5073230;28;20049;-88
2021/12/04 03:35:14;;;;;;;2.22;2.13;;;4.00;99.90;;;;;;5074018;28;20106;-89
2021/12/04 03:41:07;;;;;;;1.42;1.17;;;4.00;99.90;;;;;;5074289;28;20064;-89
2021/12/04 03:43:33;;;;;;;1.75;0.82;;;4.00;99.90;;;;;;5072657;28;20048;-89
2021/12/04 03:46:04;;;;;;;0.85;0.70;;;4.00;99.90;;;;;;5072480;28;20570;-88
2021/12/04 03:50:59;;;;;;;1.77;1.73;;;4.00;99.90;;;;;;5073886;28;20116;-89
2021/12/04 03:53:24;;;;;;;3.63;1.33;;;4.00;99.90;;;;;;5056052;28;20080;-89
2021/12/04 03:59:37;;;;;;;1.25;1.23;;;4.00;99.90;;;;;;5073912;28;20059;-90
2021/12/04 04:02:05;;;;;;;0.65;0.65;;;4.00;99.90;;;;;;5072807;28;20048;-89
2021/12/04 04:04:32;;;;;;;2.33;1.85;;;4.00;99.90;;;;;;5072493;28;20060;-90
2021/12/04 04:06:59;;;;;;;1.15;1.15;;;4.00;99.90;;;;;;5072903;28;20086;-90
2021/12/04 04:09:25;;;;;;;1.55;1.45;;;4.00;99.90;;;;;;5073604;28;20594;-90
2021/12/04 04:11:51;;;;;;;0.50;0.50;;;4.00;99.90;;;;;;5073522;28;20670;-89
2021/12/04 04:14:17;;;;;;;1.27;1.27;;;4.00;99.90;;;;;;5073527;28;20571;-89
2021/12/04 04:16:43;;;;;;;0.60;0.60;;;4.00;99.90;;;;;;5072410;28;20040;-88
2021/12/04 04:19:09;;;;;;;1.90;1.75;;;4.00;99.90;;;;;;5073597;28;20047;-89
2021/12/04 04:21:39;;;;;;;0.90;0.90;;;4.00;99.90;;;;;;5074051;28;20040;-88
2021/12/04 04:24:10;;;;;;;0.50;0.50;;;4.00;99.90;;;;;;5072654;28;20057;-82
2021/12/04 04:26:37;;;;;;;0.25;0.20;;;3.90;99.90;;;;;;5073873;28;20036;-89
2021/12/04 04:29:06;;;;;;;3.33;1.30;;;4.00;99.90;;;;;;5073717;28;20055;-89
2021/12/04 04:31:33;;;;;;;3.58;1.85;;;4.00;99.90;;;;;;5073639;28;20041;-87
2021/12/04 04:34:03;;;;;;;0.98;0.95;;;3.90;99.90;;;;;;5073685;28;20048;-88
2021/12/04 05:11:17;;;;;;;0.57;0.57;;;3.90;99.90;;;;;;5071533;28;20131;-88
2021/12/04 05:13:42;;;;;;;1.45;1.35;;;4.00;99.90;;;;;;5071838;28;20041;-86
2021/12/04 05:16:20;;;;;;;0.77;0.77;;;3.90;99.90;;;;;;5073102;28;20055;-88
2021/12/04 05:18:57;;;;;;;6.05;1.50;;;3.90;99.90;;;;;;5071701;28;20048;-87
2021/12/04 05:21:23;;;;;;;2.28;2.03;;;3.90;99.90;;;;;;5071649;28;20571;-88
2021/12/04 05:23:52;;;;;;;0.85;0.85;;;3.90;99.90;;;;;;5072671;28;20048;-88
2021/12/04 05:26:21;;;;;;;0.47;0.47;;;3.90;99.90;;;;;;5076692;28;20052;-88
2021/12/04 05:28:47;;;;;;;2.33;0.98;;;3.90;99.90;;;;;;5076448;28;20048;-88
2021/12/04 05:31:14;;;;;;;1.20;1.10;;;3.90;99.90;;;;;;5075494;28;20485;-88
2021/12/04 05:33:40;;;;;;;0.98;0.88;;;3.90;99.90;;;;;;5076854;28;20037;-87
2021/12/04 05:36:07;;;;;;;1.33;1.23;;;4.00;99.90;;;;;;5076959;28;20051;-89
2021/12/04 05:38:34;;;;;;;1.20;0.98;;;4.00;99.90;;;;;;5076738;28;20055;-89
2021/12/04 05:41:00;;;;;;;1.38;1.15;;;4.00;99.90;;;;;;5076961;28;20049;-89
2021/12/04 05:43:26;;;;;;;0.75;0.75;;;3.90;99.90;;;;;;5075478;28;20045;-90
2021/12/04 05:45:59;;;;;;;1.20;1.20;;;3.90;99.90;;;;;;5075380;28;20071;-88
2021/12/04 05:48:38;;;;;;;3.72;2.38;;;3.90;99.90;;;;;;5076712;28;20052;-88
2021/12/04 05:56:14;;;;;;;5.18;2.17;;;3.90;99.90;;;;;;5074987;28;20067;-88
2021/12/04 05:58:40;;;;;;;2.22;1.48;;;3.90;99.90;;;;;;5075134;28;20057;-88
2021/12/04 06:01:07;;;;;;;7.68;2.60;;;4.00;99.90;;;;;;5076290;28;20075;-89
2021/12/04 06:03:34;;;;;;;1.00;1.00;;;4.00;99.90;;;;;;5076204;28;20123;-90
2021/12/04 06:06:00;;;;;;;6.22;1.10;;;4.00;99.90;;;;;;5076217;28;20052;-89
2021/12/04 06:08:26;;;;;;;1.67;1.58;;;3.90;99.90;;;;;;5075218;28;20041;-89
2021/12/04 06:10:53;;;;;;;1.55;1.45;;;3.90;99.90;;;;;;5075041;28;20134;-88
2021/12/04 06:13:18;;;;;;;4.55;2.60;;;3.90;99.90;;;;;;5076279;28;20093;-90
2021/12/04 06:15:44;;;;;;;1.80;1.70;;;3.90;99.90;;;;;;5076248;28;20036;-88
2021/12/04 06:18:11;;;;;;;1.52;1.45;;;4.00;99.90;;;;;;5075049;28;20477;-87
2021/12/04 06:23:22;;;;;;;1.67;1.60;;;4.00;99.90;;;;;;5075773;28;20485;-89
2021/12/04 06:25:49;;;;;;;1.98;1.88;;;4.00;99.90;;;;;;5075957;28;20428;-89
2021/12/04 06:28:16;;;;;;;2.95;1.75;;;3.90;99.90;;;;;;5074616;28;20048;-87
2021/12/04 06:30:43;;;;;;;0.98;0.98;;;4.00;99.90;;;;;;5074954;28;20045;-89
2021/12/04 06:33:10;;;;;;;3.33;3.22;;;3.90;99.90;;;;;;5074699;28;20089;-88
2021/12/04 06:35:40;;;;;;;0.93;0.93;;;4.00;99.90;;;;;;5073966;28;20043;-89
2021/12/04 06:38:09;;;;;;;1.95;0.95;;;3.90;99.90;;;;;;5074452;28;20051;-89
2021/12/04 06:40:37;;;;;;;2.50;0.98;;;3.90;99.90;;;;;;5074142;28;20139;-89
2021/12/04 06:43:04;;;;;;;2.25;1.58;;;4.00;99.90;;;;;;5074538;28;20037;-89
2021/12/04 06:45:32;;;;;;;2.13;1.73;;;3.90;99.90;;;;;;5074433;28;20056;-89
2021/12/04 06:48:02;;;;;;;0.90;0.65;;;4.00;99.90;;;;;;5074520;28;20044;-90
2021/12/04 06:50:39;;;;;;;0.90;0.90;;;3.90;99.90;;;;;;5075555;28;20119;-88
2021/12/04 06:53:14;;;;;;;0.63;0.63;;;4.00;99.90;;;;;;5075485;28;20044;-88
2021/12/04 06:55:44;;;;;;;0.20;0.20;;;4.00;99.90;;;;;;5074575;28;20048;-89
2021/12/04 06:58:10;;;;;;;1.10;1.00;;;3.90;99.90;;;;;;5074089;28;20119;-89
2021/12/04 07:00:36;;;;;;;3.85;2.05;;;3.90;99.90;;;;;;5074499;28;20524;-89
2021/12/04 07:03:02;;;;;;;4.95;1.95;;;4.00;99.90;;;;;;5075172;28;20043;-89
2021/12/04 07:05:27;;;;;;;2.65;0.95;;;3.90;99.90;;;;;;5074175;28;20060;-86
2021/12/04 07:07:53;;;;;;;2.15;1.52;;;4.00;99.90;;;;;;5056313;28;20045;-85
2021/12/04 07:10:19;;;;;;;6.78;2.42;;;4.00;99.90;;;;;;5072618;28;20048;-86
2021/12/04 07:12:44;;;;;;;2.28;2.00;;;4.00;99.90;;;;;;5073967;28;20041;-86
2021/12/04 07:15:11;;;;;;;8.43;4.00;;;3.90;99.90;;;;;;5072890;28;20370;-86
2021/12/04 07:17:37;;;;;;;1.38;1.38;;;4.00;99.90;;;;;;5074272;28;20044;-84
2021/12/04 07:20:05;;;;;;;1.65;1.10;;;3.90;99.90;;;;;;5073907;28;20051;-85
2021/12/04 07:22:31;;;;;;;2.08;1.98;;;4.00;99.90;;;;;;5072687;28;20048;-86
2021/12/04 07:24:57;;;;;;;2.38;1.52;;;4.00;99.90;;;;;;5072787;28;20419;-85
2021/12/04 07:27:23;;;;;;;1.17;1.00;;;4.00;99.90;;;;;;5073892;28;20047;-85
2021/12/04 07:29:49;;;;;;;1.75;1.75;;;4.00;99.90;;;;;;5056040;28;20079;-86
2021/12/04 07:32:15;;;;;;;3.15;1.65;;;4.00;99.90;;;;;;5073722;28;20488;-85
2021/12/04 07:34:41;;;;;;;2.90;1.05;;;4.00;99.90;;;;;;5073762;28;20123;-84
2021/12/04 07:37:06;;;;;;;9.70;2.25;;;4.00;99.90;;;;;;5073974;28;20055;-84
2021/12/04 07:39:32;;;;;;;1.08;1.08;;;4.00;99.90;;;;;;5073768;28;20370;-85
2021/12/04 07:41:58;;;;;;;1.80;1.70;;;4.00;99.90;;;;;;5072204;28;20412;-85
2021/12/04 07:44:24;;;;;;;0.80;0.80;;;4.10;99.90;;;;;;5073493;28;20431;-85
2021/12/04 07:46:49;;;;;;;3.75;2.10;;;4.00;99.90;;;;;;5073314;28;20071;-85
2021/12/04 07:49:15;;;;;;;1.40;1.30;;;4.00;99.90;;;;;;5073353;28;20044;-85
2021/12/04 07:51:43;;;;;;;1.30;1.20;;;4.00;99.90;;;;;;5071989;28;20044;-84
2021/12/04 07:54:09;;;;;;;5.03;1.27;;;4.00;99.90;;;;;;5073222;28;20432;-85
2021/12/04 07:56:35;;;;;;;1.88;1.75;;;4.00;99.90;;;;;;5073306;28;20052;-86
2021/12/04 07:59:01;;;;;;;0.82;0.82;;;4.00;99.90;;;;;;5073047;28;20052;-85
2021/12/04 08:01:27;;;;;;;0.82;0.82;;;4.00;99.90;;;;;;5072270;28;20473;-85
2021/12/04 08:03:53;;;;;;;3.97;1.83;;;4.00;99.90;;;;;;5071781;28;20056;-85
2021/12/04 08:06:19;;;;;;;1.15;1.15;;;4.00;99.90;;;;;;5071868;28;20101;-86
2021/12/04 08:08:44;;;;;;;0.60;0.60;;;4.10;99.90;;;;;;5072051;28;20041;-86
2021/12/04 08:11:10;;;;;;;3.58;2.25;;;4.10;99.90;;;;;;5073464;28;20045;-84
2021/12/04 08:13:36;;;;;;;2.75;2.65;;;4.10;99.90;;;;;;5074168;28;20044;-86
2021/12/04 08:16:01;;;;;;;1.55;0.95;;;4.00;99.90;;;;;;5072577;28;20142;-85
2021/12/04 08:18:28;;;;;;;1.48;1.38;;;4.10;99.90;;;;;;5073470;28;20542;-85
2021/12/04 08:20:54;;;;;;;7.57;1.83;;;4.10;99.90;;;;;;5073219;28;20090;-85
2021/12/04 08:23:20;;;;;;;5.72;2.80;;;4.10;99.90;;;;;;5071961;28;20048;-85
2021/12/04 08:25:47;;;;;;;3.65;1.63;;;4.10;99.90;;;;;;5073066;28;20040;-83
2021/12/04 08:28:14;;;;;;;2.97;2.78;;;4.10;99.90;;;;;;5073161;28;20091;-85
2021/12/04 08:30:40;;;;;;;0.43;0.40;;;4.10;99.90;;;;;;5071584;28;20046;-85
2021/12/04 08:33:08;;;;;;;3.33;1.95;;;4.10;99.90;;;;;;5071639;28;20114;-83
2021/12/04 08:35:39;;;;;;;3.60;3.30;;;4.20;99.90;;;;;;5072995;28;20047;-84
2021/12/04 08:38:06;;;;;;;1.70;1.35;;;4.20;99.90;;;;;;5071490;28;20040;-85
2021/12/04 08:40:33;;;;;;;5.45;3.03;;;4.20;99.90;;;;;;5073365;28;20135;-87
2021/12/04 08:42:59;;;;;;;5.18;1.00;;;4.20;99.90;;;;;;5071401;28;20048;-85
2021/12/04 08:45:25;;;;;;;6.05;0.82;;;4.20;99.90;;;;;;5072054;28;20271;-86
2021/12/04 08:47:51;;;;;;;3.30;3.03;;;4.20;99.90;;;;;;5073164;28;20045;-86
2021/12/04 08:50:21;;;;;;;1.35;1.05;;;4.30;99.90;;;;;;5072870;28;20407;-86
2021/12/04 08:52:47;;;;;;;1.38;1.30;;;4.30;99.90;;;;;;5071713;28;20059;-85
2021/12/04 08:55:16;;;;;;;1.45;1.33;;;4.30;99.90;;;;;;5071321;28;20053;-86
2021/12/04 08:57:42;;;;;;;1.20;0.93;;;4.30;99.90;;;;;;5073031;28;20056;-85
2021/12/04 09:00:13;;;;;;;3.50;3.25;;;4.30;99.90;;;;;;5074566;28;20489;-85
2021/12/04 09:02:39;;;;;;;2.78;1.83;;;4.40;99.90;;;;;;5075411;28;20051;-84
2021/12/04 09:05:07;;;;;;;5.18;1.40;;;4.40;99.90;;;;;;5076417;28;20066;-85
2021/12/04 09:07:33;;;;;;;6.47;3.13;;;4.40;99.90;;;;;;5076561;28;20055;-85
2021/12/04 09:09:59;;;;;;;3.35;1.73;;;4.40;99.90;;;;;;5058607;28;20040;-86
2021/12/04 09:12:27;;;;;;;5.93;1.48;;;4.40;99.90;;;;;;5076444;28;20041;-85
2021/12/04 09:14:54;;;;;;;4.20;2.15;;;4.50;99.90;;;;;;5058239;28;20049;-85
2021/12/04 09:17:21;;;;;;;5.22;1.13;;;4.50;99.90;;;;;;5074906;28;20040;-85
2021/12/04 09:19:47;;;;;;;1.33;1.23;;;4.50;99.90;;;;;;5074937;28;20098;-85
2021/12/04 09:22:16;;;;;;;1.63;1.42;;;4.50;99.90;;;;;;5075330;28;20040;-85
2021/12/04 09:24:47;;;;;;;3.67;2.10;;;4.60;99.90;;;;;;5074799;28;20051;-86
2021/12/04 10:24:26;;;;;;;1.58;1.55;;;4.80;99.90;;;;;;5032444;28;20562;-85
2021/12/04 10:32:54;;;;;;;0.95;0.95;;;4.80;99.90;;;;;;4997078;28;20096;-85
2021/12/04 10:35:23;;;;;;;6.65;2.30;;;4.80;99.90;;;;;;4996531;28;20074;-85
2021/12/04 10:38:00;;;;;;;3.50;1.35;;;4.80;99.90;;;;;;4996523;28;20049;-84
2021/12/04 10:40:44;;;;;;;6.25;3.97;;;4.90;99.90;;;;;;4996314;28;20073;-84
2021/12/04 10:43:17;;;;;;;5.78;2.13;;;4.90;99.90;;;;;;4996733;28;20050;-85
2021/12/04 10:45:48;;;;;;;4.25;1.55;;;4.90;99.90;;;;;;4996376;28;20053;-84
2021/12/04 10:48:22;;;;;;;4.38;2.65;;;4.90;99.90;;;;;;4996153;28;20082;-85
2021/12/04 10:53:28;;;;;;;1.98;1.92;;;4.90;99.90;;;;;;5028237;28;20084;-84
2021/12/04 11:01:12;;;;;;;12.68;4.43;;;4.90;99.90;;;;;;5073310;28;20056;-82
2021/12/04 11:24:04;;;;;;;4.88;3.53;;;5.00;99.90;;;;;;4992322;28;20052;-86
2021/12/04 11:42:40;;;;;;;2.30;2.15;;;5.20;99.90;;;;;;4992898;28;20049;-86
2021/12/04 11:45:22;;;;;;;1.38;1.27;;;5.20;99.90;;;;;;4995971;28;20093;-85
2021/12/04 11:47:54;;;;;;;4.97;2.45;;;5.10;99.90;;;;;;5072636;28;20048;-84
2021/12/04 11:50:22;;;;;;;4.32;2.40;;;5.10;99.90;;;;;;5073989;28;20041;-85
2021/12/04 11:52:52;;;;;;;2.42;1.15;;;5.20;99.90;;;;;;5072048;28;20041;-84
2021/12/04 11:55:20;;;;;;;4.60;2.50;;;5.20;99.90;;;;;;5073483;28;20045;-83
2021/12/04 11:57:47;;;;;;;1.23;1.10;;;5.20;99.90;;;;;;5069260;28;20040;-84
2021/12/04 12:00:28;;;;;;;13.75;3.83;;;5.10;99.90;;;;;;5054832;28;20584;-84
2021/12/04 12:03:18;;;;;;;4.63;2.30;;;5.20;99.90;;;;;;5054941;28;20134;-84
2021/12/04 12:05:45;;;;;;;1.55;1.52;;;5.20;99.90;;;;;;5070341;28;20134;-82
2021/12/04 12:08:27;;;;;;;10.63;3.83;;;5.20;99.90;;;;;;5072791;28;20092;-82
2021/12/04 12:11:25;;;;;;;8.05;3.55;;;5.10;99.90;;;;;;5054862;28;20040;-84
2021/12/04 12:14:10;;;;;;;4.03;1.40;;;5.10;99.90;;;;;;5071636;28;20048;-85
2021/12/04 12:16:46;;;;;;;1.10;1.05;;;5.10;99.90;;;;;;5073052;28;20040;-83
2021/12/04 12:19:25;;;;;;;0.95;0.95;;;5.10;99.90;;;;;;5071639;28;20048;-83
2021/12/04 12:22:05;;;;;;;8.45;5.90;;;5.10;99.90;;;;;;5071178;28;20537;-85
2021/12/04 12:33:45;;;;;;;5.10;4.63;;;5.20;99.90;;;;;;5033240;28;20545;-81
2021/12/04 12:36:13;;;;;;;4.72;3.40;;;5.10;99.90;;;;;;5034077;28;20076;-81
2021/12/04 12:38:53;;;;;;;6.60;5.28;;;5.20;99.90;;;;;;5050428;28;20083;-83
2021/12/04 12:41:41;;;;;;;3.72;3.45;;;5.10;99.90;;;;;;5050273;28;20600;-83
2021/12/04 12:44:09;;;;;;;16.33;4.07;;;5.10;99.90;;;;;;5050356;28;20056;-83
2021/12/04 12:46:48;;;;;;;9.75;3.83;;;5.10;99.90;;;;;;5033705;28;20511;-83
2021/12/04 12:49:25;;;;;;;10.90;4.25;;;5.10;99.90;;;;;;5033983;28;20072;-83
2021/12/04 12:51:53;;;;;;;8.80;8.00;;;5.10;99.90;;;;;;5033810;28;20045;-82
2021/12/04 12:54:33;;;;;;;8.88;4.38;;;5.00;99.90;;;;;;5033944;28;20485;-83
2021/12/04 12:57:03;;;;;;;3.10;2.33;;;5.00;99.90;;;;;;5033607;28;20032;-83
2021/12/04 12:59:43;;;;;;;5.50;2.45;;;5.00;99.90;;;;;;5033619;28;20045;-83
2021/12/04 13:13:41;;;;;;;5.18;3.20;;;5.00;99.90;;;;;;5072652;28;20045;-84
2021/12/04 13:16:19;;;;;;;3.25;2.42;;;5.00;99.90;;;;;;5072749;28;20127;-83
2021/12/04 13:18:52;;;;;;;3.03;1.23;;;5.00;99.90;;;;;;5072589;28;20045;-83
2021/12/04 13:21:19;;;;;;;4.47;2.78;;;5.00;99.90;;;;;;5072217;28;20469;-87
2021/12/04 13:23:52;;;;;;;3.25;2.97;;;5.00;99.90;;;;;;5070996;28;20094;-87
2021/12/04 13:26:18;;;;;;;5.70;3.92;;;5.00;99.90;;;;;;5071284;28;20547;-86
2021/12/04 13:28:50;;;;;;;5.07;4.55;;;5.00;99.90;;;;;;5072661;28;20068;-80
2021/12/04 13:31:18;;;;;;;5.03;4.57;;;5.00;99.90;;;;;;5072219;28;20048;-83
2021/12/04 13:33:47;;;;;;;2.55;2.35;;;5.10;99.90;;;;;;5072370;28;20094;-81
2021/12/04 13:36:18;;;;;;;4.97;4.30;;;5.10;99.90;;;;;;5070869;28;20538;-82
2021/12/04 13:38:44;;;;;;;3.93;2.03;;;5.10;99.90;;;;;;5054056;28;20404;-81
2021/12/04 13:41:11;;;;;;;21.48;3.22;;;5.10;99.90;;;;;;5071276;28;20120;-82
2021/12/04 13:43:37;;;;;;;5.13;1.92;;;5.10;99.90;;;;;;5071039;28;20045;-81
2021/12/04 13:46:05;;;;;;;6.40;1.85;;;5.10;99.90;;;;;;5075090;28;20055;-88
2021/12/04 13:48:32;;;;;;;19.02;8.68;;;5.20;99.90;;;;;;5074784;28;20045;-81
2021/12/04 13:50:59;;;;;;;2.30;2.20;;;5.00;99.90;;;;;;5075554;28;20492;-80
2021/12/04 13:53:30;;;;;;;6.65;4.45;;;5.00;99.90;;;;;;5075943;28;20055;-81
2021/12/04 13:56:00;;;;;;;2.63;1.85;;;5.00;99.90;;;;;;5075454;28;20124;-81
2021/12/04 13:58:26;;;;;;;5.10;3.97;;;5.00;99.90;;;;;;5074398;28;20044;-81
2021/12/04 14:00:52;;;;;;;9.40;4.03;;;5.00;99.90;;;;;;5075700;28;20436;-81
2021/12/04 14:03:24;;;;;;;16.08;3.50;;;5.00;99.90;;;;;;5074364;28;20103;-81
2021/12/04 14:05:50;;;;;;;5.57;3.53;;;5.00;99.90;;;;;;5073827;28;20420;-81
2021/12/04 14:08:15;;;;;;;10.00;7.50;;;5.00;99.90;;;;;;5075545;28;20072;-81
2021/12/04 14:10:44;;;;;;;2.20;2.10;;;5.00;99.90;;;;;;5074048;28;20098;-81
2021/12/04 14:13:13;;;;;;;2.97;2.03;;;5.00;99.90;;;;;;5074298;28;20051;-81
2021/12/04 14:15:44;;;;;;;3.65;3.35;;;5.00;99.90;;;;;;5073987;28;20400;-81
2021/12/04 14:18:12;;;;;;;22.90;6.10;;;5.00;99.90;;;;;;5075415;28;20041;-84
2021/12/04 14:20:40;;;;;;;3.03;2.88;;;5.10;99.90;;;;;;5073853;28;20044;-83
2021/12/04 14:23:07;;;;;;;10.40;5.05;;;5.00;99.90;;;;;;5075142;28;20123;-83
2021/12/04 14:25:42;;;;;;;3.95;2.85;;;5.00;99.90;;;;;;5056941;28;20041;-83
2021/12/04 14:28:08;;;;;;;4.82;3.28;;;5.00;99.90;;;;;;5074058;28;20524;-83
2021/12/04 14:30:36;;;;;;;9.52;3.92;;;5.00;99.90;;;;;;5073860;28;20040;-83
2021/12/04 14:33:04;;;;;;;3.80;2.88;;;5.00;99.90;;;;;;5073455;28;20095;-89
2021/12/04 14:35:36;;;;;;;13.10;5.22;;;4.90;99.90;;;;;;5074415;28;20081;-91
2021/12/04 14:38:05;;;;;;;13.55;6.28;;;5.00;99.90;;;;;;5073763;28;20049;-85
2021/12/04 14:40:35;;;;;;;8.52;7.70;;;4.90;99.90;;;;;;5056740;28;20053;-82
2021/12/04 14:43:04;;;;;;;3.50;2.72;;;4.90;99.90;;;;;;5073507;28;20091;-84
2021/12/04 14:45:33;;;;;;;4.82;3.83;;;5.00;99.90;;;;;;5056634;28;20127;-85
2021/12/04 14:48:08;;;;;;;8.10;2.92;;;4.90;99.90;;;;;;5056836;28;20055;-84
2021/12/04 14:50:36;;;;;;;1.48;1.38;;;5.00;99.90;;;;;;5073206;28;20053;-83
2021/12/04 14:53:03;;;;;;;6.68;2.83;;;4.90;99.90;;;;;;5056486;28;20052;-83
2021/12/04 14:55:35;;;;;;;4.05;3.17;;;4.90;99.90;;;;;;5073319;28;20455;-83
2021/12/04 14:58:05;;;;;;;12.30;6.03;;;4.90;99.90;;;;;;5072769;28;20117;-84
2021/12/04 15:00:37;;;;;;;5.95;5.00;;;4.90;99.90;;;;;;5073047;28;20064;-81
2021/12/04 15:03:09;;;;;;;1.33;1.30;;;4.90;99.90;;;;;;5073214;28;20053;-82
2021/12/04 15:05:39;;;;;;;8.45;3.95;;;4.90;99.90;;;;;;5072876;28;20495;-81
2021/12/04 15:08:17;;;;;;;8.32;4.50;;;4.90;99.90;;;;;;5073115;28;20070;-82
2021/12/04 15:10:48;;;;;;;6.57;3.17;;;4.90;99.90;;;;;;5072701;28;20455;-79
2021/12/04 15:13:25;;;;;;;9.57;4.80;;;4.80;99.90;;;;;;5072771;28;20489;-82
2021/12/04 15:15:53;;;;;;;14.77;3.28;;;4.90;99.90;;;;;;5072914;28;20044;-83
2021/12/04 15:18:22;;;;;;;7.35;3.97;;;4.90;99.90;;;;;;5072957;28;20041;-80
2021/12/04 15:21:14;;;;;;;11.00;3.47;;;4.90;99.90;;;;;;5072792;28;20177;-80
2021/12/04 15:23:45;;;;;;;21.45;3.53;;;4.80;99.90;;;;;;5074203;28;20051;-79
2021/12/04 15:26:20;;;;;;;5.65;2.80;;;4.80;99.90;;;;;;5072462;28;20079;-79
2021/12/04 15:28:50;;;;;;;19.75;4.47;;;4.80;99.90;;;;;;5072673;28;20036;-80
2021/12/04 15:31:17;;;;;;;10.25;2.95;;;4.80;99.90;;;;;;5073912;28;20068;-81
2021/12/04 15:33:47;;;;;;;12.15;4.82;;;4.80;99.90;;;;;;5072526;28;20045;-80
2021/12/04 15:36:25;;;;;;;6.60;3.20;;;4.80;99.90;;;;;;5072384;28;20082;-80
2021/12/04 15:38:54;;;;;;;12.73;6.80;;;4.80;99.90;;;;;;5073766;28;20041;-81
2021/12/04 15:47:06;;;;;;;6.40;5.03;;;4.80;99.90;;;;;;5072179;28;20438;-82
2021/12/04 15:55:14;;;;;;;4.47;4.05;;;4.80;99.90;;;;;;5073439;28;20048;-79
2021/12/04 15:57:40;;;;;;;5.00;4.43;;;4.80;99.90;;;;;;5072087;28;20071;-80
2021/12/04 16:00:10;;;;;;;2.15;2.05;;;4.70;99.90;;;;;;5073478;28;20037;-79
2021/12/04 16:02:40;;;;;;;8.80;2.50;;;4.70;99.90;;;;;;5071869;28;20044;-81
2021/12/04 16:05:13;;;;;;;4.25;3.90;;;4.80;99.90;;;;;;5071751;28;20092;-82
2021/12/04 16:07:39;;;;;;;4.15;3.15;;;4.80;99.90;;;;;;5073391;28;20068;-82
2021/12/04 16:10:23;;;;;;;3.85;3.33;;;4.70;99.90;;;;;;5071718;28;20047;-82
2021/12/04 16:12:55;;;;;;;4.35;3.95;;;4.70;99.90;;;;;;5071700;28;20082;-82
2021/12/04 16:15:23;;;;;;;4.88;2.33;;;4.70;99.90;;;;;;5073156;28;20037;-84
2021/12/04 16:17:50;;;;;;;6.53;2.65;;;4.70;99.90;;;;;;5071942;28;20106;-85
2021/12/04 16:20:19;;;;;;;15.55;4.47;;;4.70;99.90;;;;;;5054684;28;20056;-83
2021/12/04 16:22:48;;;;;;;5.38;1.85;;;4.70;99.90;;;;;;5071599;28;20123;-85
2021/12/04 16:25:19;;;;;;;2.25;1.67;;;4.70;99.90;;;;;;5071446;28;20049;-82
2021/12/04 16:27:58;;;;;;;3.95;3.60;;;4.70;99.90;;;;;;5071837;28;20055;-83
2021/12/04 16:38:21;;;;;;;4.22;2.15;;;4.70;99.90;;;;;;5074007;28;20051;-82